Time;durP1;ratioP1;P1;durP2;ratioP2;P2;SDS_P1;SDS_P2;PMS_P1;PMS_P2;Temp;Humidity;BMP_temperature;BMP_pressure;BME280_temperature;BME280_humidity;BME280_pressure;Samples;Min_cycle;Max_cycle;Signal;HPM_P1;HPM_P2
2022/03/25 00:00:33;;;;;;;4.63;2.13;;;;;;;;;;5073331;28;20037;-74
2022/03/25 00:03:00;;;;;;;5.30;1.80;;;;;;;;;;5068201;28;20025;-74
2022/03/25 00:05:26;;;;;;;4.67;2.10;;;;;;;;;;5068555;28;20035;-74
2022/03/25 00:07:53;;;;;;;5.43;1.87;;;;;;;;;;5047033;28;20612;-74
2022/03/25 00:10:20;;;;;;;3.33;1.90;;;;;;;;;;5048704;28;20025;-74
2022/03/25 00:12:46;;;;;;;4.07;2.10;;;;;;;;;;5054471;28;20479;-73
2022/03/25 00:15:13;;;;;;;4.87;2.43;;;;;;;;;;5054073;28;20029;-74
2022/03/25 00:17:40;;;;;;;5.10;2.40;;;;;;;;;;5063124;28;20032;-74
2022/03/25 00:20:07;;;;;;;6.30;2.00;;;;;;;;;;5053394;28;20037;-74
2022/03/25 00:22:34;;;;;;;7.03;1.80;;;;;;;;;;5067237;28;20082;-74
2022/03/25 00:25:01;;;;;;;6.63;2.23;;;;;;;;;;5068581;28;20616;-74
2022/03/25 00:27:28;;;;;;;4.27;1.40;;;;;;;;;;5056897;28;20048;-74
2022/03/25 00:29:55;;;;;;;3.07;1.53;;;;;;;;;;5036836;28;20032;-74
2022/03/25 00:32:21;;;;;;;11.17;4.70;;;;;;;;;;5047950;28;20025;-74
2022/03/25 00:34:48;;;;;;;8.00;4.03;;;;;;;;;;5032432;28;20354;-73
2022/03/25 00:37:15;;;;;;;3.67;2.20;;;;;;;;;;5046737;28;20033;-74
2022/03/25 00:39:41;;;;;;;2.67;1.40;;;;;;;;;;5053263;28;20496;-74
2022/03/25 00:42:09;;;;;;;2.90;1.23;;;;;;;;;;5053177;28;20028;-73
2022/03/25 00:44:38;;;;;;;3.00;1.10;;;;;;;;;;5036526;28;20052;-74
2022/03/25 00:47:05;;;;;;;6.93;1.10;;;;;;;;;;5054422;28;20039;-74
2022/03/25 00:49:32;;;;;;;1.83;1.27;;;;;;;;;;5047948;28;20025;-74
2022/03/25 00:51:59;;;;;;;2.00;1.10;;;;;;;;;;5048854;28;20068;-73
2022/03/25 00:54:27;;;;;;;4.93;1.10;;;;;;;;;;5067177;28;20062;-74
2022/03/25 00:56:54;;;;;;;2.13;0.83;;;;;;;;;;5061252;28;20017;-74
2022/03/25 00:59:22;;;;;;;1.30;0.83;;;;;;;;;;5052958;28;20485;-73
2022/03/25 01:01:48;;;;;;;3.67;0.70;;;;;;;;;;5052950;28;20025;-73
2022/03/25 01:04:16;;;;;;;7.30;2.67;;;;;;;;;;5053001;28;20033;-73
2022/03/25 01:06:43;;;;;;;1.90;0.90;;;;;;;;;;5070144;28;20033;-73
2022/03/25 01:09:10;;;;;;;1.17;0.70;;;;;;;;;;5067927;28;20520;-73
2022/03/25 01:11:36;;;;;;;1.30;0.80;;;;;;;;;;5047464;28;20023;-74
2022/03/25 01:14:04;;;;;;;2.53;0.90;;;;;;;;;;5047397;28;20029;-73
2022/03/25 01:16:31;;;;;;;1.70;0.90;;;;;;;;;;5062067;28;20024;-73
2022/03/25 01:18:59;;;;;;;2.10;1.00;;;;;;;;;;5054101;28;20025;-73
2022/03/25 01:21:26;;;;;;;1.57;0.77;;;;;;;;;;5059679;28;20056;-73
2022/03/25 01:23:53;;;;;;;1.90;1.03;;;;;;;;;;5065572;28;20028;-73
2022/03/25 01:26:19;;;;;;;3.73;0.90;;;;;;;;;;5052101;28;20035;-74
2022/03/25 01:28:46;;;;;;;6.93;1.50;;;;;;;;;;5052099;28;20033;-73
2022/03/25 01:31:13;;;;;;;1.70;0.93;;;;;;;;;;5050676;28;20669;-73
2022/03/25 01:33:41;;;;;;;2.93;1.27;;;;;;;;;;5047009;28;20494;-73
2022/03/25 01:36:09;;;;;;;3.50;1.73;;;;;;;;;;5059611;28;20499;-73
2022/03/25 01:38:36;;;;;;;6.17;1.50;;;;;;;;;;5066804;28;20028;-73
2022/03/25 01:41:03;;;;;;;3.20;1.47;;;;;;;;;;5069039;28;20043;-73
2022/03/25 01:43:30;;;;;;;5.30;1.80;;;;;;;;;;5071627;28;20028;-74
2022/03/25 01:45:56;;;;;;;4.10;1.80;;;;;;;;;;5061831;28;20171;-73
2022/03/25 01:48:23;;;;;;;4.57;2.20;;;;;;;;;;5057764;28;20036;-73
2022/03/25 01:50:51;;;;;;;4.03;2.03;;;;;;;;;;5072223;28;20044;-73
2022/03/25 01:53:25;;;;;;;4.43;2.07;;;;;;;;;;5069561;28;20107;-73
2022/03/25 01:55:52;;;;;;;4.47;2.77;;;;;;;;;;5061192;28;20035;-73
2022/03/25 01:58:19;;;;;;;5.77;3.57;;;;;;;;;;5064745;28;20075;-74
2022/03/25 02:00:46;;;;;;;6.33;3.30;;;;;;;;;;5049633;28;20115;-73
2022/03/25 02:03:13;;;;;;;6.93;3.60;;;;;;;;;;5068309;28;20039;-73
2022/03/25 02:05:41;;;;;;;5.80;2.83;;;;;;;;;;5064489;28;20025;-73
2022/03/25 02:08:08;;;;;;;10.20;2.73;;;;;;;;;;5051773;28;20387;-73
2022/03/25 02:10:35;;;;;;;4.80;1.90;;;;;;;;;;5052002;28;20029;-73
2022/03/25 02:13:02;;;;;;;4.27;1.67;;;;;;;;;;5043070;28;20021;-73
2022/03/25 02:15:36;;;;;;;3.50;1.53;;;;;;;;;;5069711;28;20039;-74
2022/03/25 02:18:05;;;;;;;6.40;1.63;;;;;;;;;;5058314;28;20075;-73
2022/03/25 02:20:32;;;;;;;3.27;1.40;;;;;;;;;;5046526;28;20053;-73
2022/03/25 02:22:59;;;;;;;3.63;0.90;;;;;;;;;;5051504;28;20120;-73
2022/03/25 02:25:35;;;;;;;2.27;0.80;;;;;;;;;;5058562;28;20416;-73
2022/03/25 02:28:06;;;;;;;0.93;0.60;;;;;;;;;;5059609;28;20029;-74
2022/03/25 02:30:34;;;;;;;1.27;0.70;;;;;;;;;;5052701;28;20021;-74
2022/03/25 02:33:02;;;;;;;2.63;1.00;;;;;;;;;;5067607;28;20039;-73
2022/03/25 02:35:49;;;;;;;1.80;0.80;;;;;;;;;;5069821;28;20020;-73
2022/03/25 02:38:21;;;;;;;2.70;0.50;;;;;;;;;;5066714;28;20105;-73
2022/03/25 02:40:48;;;;;;;1.33;0.50;;;;;;;;;;5066775;28;20029;-73
2022/03/25 02:43:15;;;;;;;1.13;0.60;;;;;;;;;;5068884;28;20495;-73
2022/03/25 02:45:42;;;;;;;2.47;1.07;;;;;;;;;;5065588;28;20028;-73
2022/03/25 02:48:09;;;;;;;1.83;0.57;;;;;;;;;;5054612;28;20040;-73
2022/03/25 02:50:36;;;;;;;1.37;0.60;;;;;;;;;;5075545;28;20020;-74
2022/03/25 02:53:03;;;;;;;1.10;0.60;;;;;;;;;;5075254;28;20444;-74
2022/03/25 02:55:30;;;;;;;2.10;0.60;;;;;;;;;;5075095;28;20093;-74
2022/03/25 02:57:57;;;;;;;3.10;0.70;;;;;;;;;;5067109;28;20055;-74
2022/03/25 03:00:27;;;;;;;0.90;0.50;;;;;;;;;;5032905;28;20030;-73
2022/03/25 03:02:55;;;;;;;1.30;0.80;;;;;;;;;;5038047;28;20591;-74
2022/03/25 03:05:22;;;;;;;3.43;0.50;;;;;;;;;;5057951;28;20360;-74
2022/03/25 03:07:50;;;;;;;0.90;0.67;;;;;;;;;;5069825;28;20395;-73
2022/03/25 03:10:18;;;;;;;1.33;0.60;;;;;;;;;;5069506;28;20028;-74
2022/03/25 03:12:44;;;;;;;1.57;1.00;;;;;;;;;;5070051;28;20044;-73
2022/03/25 03:15:13;;;;;;;1.60;0.60;;;;;;;;;;5054914;28;20029;-73
2022/03/25 03:17:40;;;;;;;1.33;0.70;;;;;;;;;;5058942;28;20024;-73
2022/03/25 03:20:07;;;;;;;2.33;0.83;;;;;;;;;;5058348;28;20480;-73
2022/03/25 03:22:34;;;;;;;2.83;0.77;;;;;;;;;;5052916;28;20495;-74
2022/03/25 03:25:01;;;;;;;0.60;0.50;;;;;;;;;;5049728;28;20033;-73
2022/03/25 03:27:28;;;;;;;1.43;0.60;;;;;;;;;;5049348;28;20056;-74
2022/03/25 03:29:55;;;;;;;2.77;0.50;;;;;;;;;;5063140;28;20027;-73
2022/03/25 03:32:22;;;;;;;0.73;0.40;;;;;;;;;;5070520;28;20025;-73
2022/03/25 03:34:49;;;;;;;2.50;0.77;;;;;;;;;;5034762;28;20021;-73
2022/03/25 03:37:16;;;;;;;1.70;0.57;;;;;;;;;;5042623;28;20032;-73
2022/03/25 03:39:43;;;;;;;1.07;0.50;;;;;;;;;;5066594;28;20028;-73
2022/03/25 03:42:10;;;;;;;1.20;0.60;;;;;;;;;;5074203;28;20085;-74
2022/03/25 03:44:38;;;;;;;1.40;0.70;;;;;;;;;;5073322;28;21222;-74
2022/03/25 03:47:06;;;;;;;0.40;0.40;;;;;;;;;;5066837;28;20036;-73
2022/03/25 03:49:33;;;;;;;1.70;0.60;;;;;;;;;;5059817;28;20105;-73
2022/03/25 03:52:00;;;;;;;1.30;0.77;;;;;;;;;;5068299;28;20090;-73
2022/03/25 03:54:28;;;;;;;2.73;1.00;;;;;;;;;;5069526;28;20119;-73
2022/03/25 03:56:55;;;;;;;2.60;1.03;;;;;;;;;;5074665;28;20021;-73
2022/03/25 03:59:22;;;;;;;2.63;0.77;;;;;;;;;;5064309;28;20538;-73
2022/03/25 04:01:49;;;;;;;1.67;0.90;;;;;;;;;;5066155;28;20036;-73
2022/03/25 04:04:17;;;;;;;2.13;0.73;;;;;;;;;;5074076;28;20124;-73
2022/03/25 04:06:44;;;;;;;0.93;0.60;;;;;;;;;;5054180;28;20040;-73
2022/03/25 04:09:11;;;;;;;0.93;0.50;;;;;;;;;;5048746;28;20033;-73
2022/03/25 04:11:38;;;;;;;1.27;0.70;;;;;;;;;;5064196;28;20028;-73
2022/03/25 04:14:05;;;;;;;1.67;0.50;;;;;;;;;;5068651;28;20030;-74
2022/03/25 04:16:31;;;;;;;1.70;0.70;;;;;;;;;;5068845;28;20020;-73
2022/03/25 04:18:59;;;;;;;0.87;0.60;;;;;;;;;;5058508;28;20029;-73
2022/03/25 04:21:26;;;;;;;1.07;0.50;;;;;;;;;;5067194;28;20391;-73
2022/03/25 04:23:53;;;;;;;1.70;0.67;;;;;;;;;;5059363;28;20031;-73
2022/03/25 04:26:20;;;;;;;1.63;0.67;;;;;;;;;;5073406;28;20468;-73
2022/03/25 04:28:47;;;;;;;2.97;0.80;;;;;;;;;;5061038;28;20029;-73
2022/03/25 04:31:14;;;;;;;1.00;0.67;;;;;;;;;;5059715;28;20071;-73
2022/03/25 04:33:41;;;;;;;2.03;1.00;;;;;;;;;;5054463;28;20112;-73
2022/03/25 04:36:08;;;;;;;1.30;0.60;;;;;;;;;;5048266;28;20074;-73
2022/03/25 04:38:35;;;;;;;1.13;0.40;;;;;;;;;;5045914;28;20021;-73
2022/03/25 04:41:02;;;;;;;0.90;0.40;;;;;;;;;;5064378;28;20059;-73
2022/03/25 04:43:29;;;;;;;2.37;0.53;;;;;;;;;;5071271;28;20025;-73
2022/03/25 04:45:56;;;;;;;1.17;0.50;;;;;;;;;;5073532;28;20059;-73
2022/03/25 04:48:23;;;;;;;0.70;0.53;;;;;;;;;;5067017;28;20025;-73
2022/03/25 04:50:49;;;;;;;0.73;0.50;;;;;;;;;;5053505;28;20028;-73
2022/03/25 04:53:16;;;;;;;1.03;0.60;;;;;;;;;;5040391;28;20028;-73
2022/03/25 04:55:43;;;;;;;1.23;0.63;;;;;;;;;;5068152;28;20035;-73
2022/03/25 04:58:10;;;;;;;1.93;0.80;;;;;;;;;;5067602;28;20033;-73
2022/03/25 05:00:37;;;;;;;2.20;0.63;;;;;;;;;;5067410;28;20027;-73
2022/03/25 05:03:04;;;;;;;1.37;0.57;;;;;;;;;;5057177;28;20485;-74
2022/03/25 05:05:32;;;;;;;2.27;0.60;;;;;;;;;;5052695;28;20057;-73
2022/03/25 05:07:58;;;;;;;1.27;0.60;;;;;;;;;;5052958;28;20033;-73
2022/03/25 05:10:25;;;;;;;1.67;0.70;;;;;;;;;;5052918;28;20091;-73
2022/03/25 05:12:52;;;;;;;1.07;0.60;;;;;;;;;;5056684;28;20120;-72
2022/03/25 05:15:18;;;;;;;0.80;0.47;;;;;;;;;;5050197;28;20029;-73
2022/03/25 05:17:46;;;;;;;2.07;0.63;;;;;;;;;;5052918;28;20506;-73
2022/03/25 05:20:13;;;;;;;1.03;0.40;;;;;;;;;;5067188;28;20436;-73
2022/03/25 05:22:40;;;;;;;2.07;0.70;;;;;;;;;;5051364;28;20096;-73
2022/03/25 05:25:07;;;;;;;0.80;0.40;;;;;;;;;;5053240;28;20029;-73
2022/03/25 05:27:47;;;;;;;2.03;0.90;;;;;;;;;;5062493;28;20108;-73
2022/03/25 05:30:14;;;;;;;1.00;0.60;;;;;;;;;;5052739;28;20071;-73
2022/03/25 05:32:42;;;;;;;2.30;0.60;;;;;;;;;;5051895;28;20025;-74
2022/03/25 05:35:10;;;;;;;0.70;0.50;;;;;;;;;;5052626;28;20483;-73
2022/03/25 05:37:37;;;;;;;0.63;0.60;;;;;;;;;;5047756;28;20021;-72
2022/03/25 05:40:04;;;;;;;0.63;0.40;;;;;;;;;;5047416;28;20075;-73
2022/03/25 05:42:32;;;;;;;1.03;0.50;;;;;;;;;;5050394;28;20054;-73
2022/03/25 05:44:58;;;;;;;3.03;0.60;;;;;;;;;;5063624;28;20051;-73
2022/03/25 05:47:25;;;;;;;1.43;0.70;;;;;;;;;;5050895;28;20142;-74
2022/03/25 05:49:52;;;;;;;0.40;0.30;;;;;;;;;;5052267;28;20070;-73
2022/03/25 05:52:19;;;;;;;1.50;0.40;;;;;;;;;;5052299;28;20029;-73
2022/03/25 05:54:45;;;;;;;0.43;0.30;;;;;;;;;;5065451;28;20031;-75
2022/03/25 05:57:12;;;;;;;1.30;0.40;;;;;;;;;;5043245;28;20060;-75
2022/03/25 05:59:39;;;;;;;0.47;0.40;;;;;;;;;;5035273;28;20467;-76
2022/03/25 06:02:05;;;;;;;0.90;0.40;;;;;;;;;;5047318;28;20029;-75
2022/03/25 06:04:32;;;;;;;0.43;0.20;;;;;;;;;;5051635;28;20036;-72
2022/03/25 06:06:59;;;;;;;1.10;0.30;;;;;;;;;;5047341;28;20377;-79
2022/03/25 06:09:26;;;;;;;1.13;0.33;;;;;;;;;;5050428;28;20036;-71
2022/03/25 06:11:52;;;;;;;1.90;0.53;;;;;;;;;;5050028;28;20029;-71
2022/03/25 06:14:19;;;;;;;1.50;0.30;;;;;;;;;;5062056;28;20031;-71
2022/03/25 06:16:46;;;;;;;0.73;0.30;;;;;;;;;;5076250;28;20020;-71
2022/03/25 06:19:13;;;;;;;1.43;0.50;;;;;;;;;;5076395;28;20464;-70
2022/03/25 06:21:40;;;;;;;4.30;0.67;;;;;;;;;;5072253;28;20033;-76
2022/03/25 06:24:07;;;;;;;1.23;0.50;;;;;;;;;;5056060;28;20353;-76
2022/03/25 06:26:34;;;;;;;1.33;0.80;;;;;;;;;;5049574;28;20478;-76
2022/03/25 06:29:01;;;;;;;0.90;0.50;;;;;;;;;;5049738;28;20025;-76
2022/03/25 06:31:27;;;;;;;3.80;0.90;;;;;;;;;;5051980;28;20025;-76
2022/03/25 06:33:54;;;;;;;3.03;0.83;;;;;;;;;;5064713;28;20386;-76
2022/03/25 06:36:21;;;;;;;2.80;1.00;;;;;;;;;;5073931;28;20025;-76
2022/03/25 06:38:48;;;;;;;2.07;1.20;;;;;;;;;;5073727;28;20429;-76
2022/03/25 06:41:14;;;;;;;1.90;1.00;;;;;;;;;;5074481;28;20131;-76
2022/03/25 06:43:41;;;;;;;2.70;1.10;;;;;;;;;;5063798;28;20079;-76
2022/03/25 06:46:08;;;;;;;1.70;1.00;;;;;;;;;;5050526;28;20063;-76
2022/03/25 06:48:35;;;;;;;1.50;0.93;;;;;;;;;;5050419;28;20021;-76
2022/03/25 06:51:04;;;;;;;1.27;0.60;;;;;;;;;;5050633;28;20111;-76
2022/03/25 06:53:31;;;;;;;1.17;0.70;;;;;;;;;;5059685;28;20031;-76
2022/03/25 06:55:58;;;;;;;1.60;0.70;;;;;;;;;;5075271;28;20071;-76
2022/03/25 06:58:25;;;;;;;0.70;0.50;;;;;;;;;;5075521;28;20036;-76
2022/03/25 07:00:52;;;;;;;1.33;0.67;;;;;;;;;;5075406;28;20074;-75
2022/03/25 07:03:19;;;;;;;1.33;0.73;;;;;;;;;;5070191;28;20047;-76
2022/03/25 07:05:45;;;;;;;3.83;0.33;;;;;;;;;;5052704;28;20067;-76
2022/03/25 07:08:13;;;;;;;1.40;0.93;;;;;;;;;;5049848;28;20056;-76
2022/03/25 07:10:39;;;;;;;0.83;0.40;;;;;;;;;;5049715;28;20033;-76
2022/03/25 07:13:06;;;;;;;1.03;0.63;;;;;;;;;;5059889;28;20096;-76
2022/03/25 07:15:33;;;;;;;2.27;1.23;;;;;;;;;;5071717;28;20063;-76
2022/03/25 07:18:00;;;;;;;1.50;0.63;;;;;;;;;;5075142;28;20024;-75
2022/03/25 07:20:27;;;;;;;1.43;0.70;;;;;;;;;;5075145;28;20033;-76
2022/03/25 07:22:54;;;;;;;2.10;1.00;;;;;;;;;;5067103;28;20372;-76
2022/03/25 07:25:21;;;;;;;1.80;0.90;;;;;;;;;;5054950;28;20037;-76
2022/03/25 07:27:48;;;;;;;1.50;0.73;;;;;;;;;;5051562;28;20039;-76
2022/03/25 07:30:16;;;;;;;0.80;0.43;;;;;;;;;;5049833;28;20426;-76
2022/03/25 07:32:43;;;;;;;2.73;0.60;;;;;;;;;;5055216;28;20012;-75
2022/03/25 07:35:10;;;;;;;0.73;0.40;;;;;;;;;;5069742;28;20028;-75
2022/03/25 07:37:38;;;;;;;1.00;0.47;;;;;;;;;;5070960;28;20033;-75
2022/03/25 07:40:05;;;;;;;1.03;0.40;;;;;;;;;;5074891;28;20032;-75
2022/03/25 07:42:32;;;;;;;0.53;0.40;;;;;;;;;;5069698;28;20033;-75
2022/03/25 07:44:58;;;;;;;0.80;0.33;;;;;;;;;;5054760;28;20479;-76
2022/03/25 07:47:25;;;;;;;0.73;0.37;;;;;;;;;;5054728;28;20087;-75
2022/03/25 07:49:52;;;;;;;0.93;0.60;;;;;;;;;;5052997;28;20350;-76
2022/03/25 07:52:18;;;;;;;1.40;0.80;;;;;;;;;;5051147;28;20094;-75
2022/03/25 07:54:45;;;;;;;2.10;0.70;;;;;;;;;;5069200;28;20111;-75
2022/03/25 07:57:12;;;;;;;0.63;0.50;;;;;;;;;;5069358;28;20455;-76
2022/03/25 07:59:38;;;;;;;0.87;0.57;;;;;;;;;;5069781;28;20051;-75
2022/03/25 08:02:05;;;;;;;2.77;1.40;;;;;;;;;;5073855;28;20075;-75
2022/03/25 08:04:32;;;;;;;2.40;1.50;;;;;;;;;;5034615;28;20029;-75
2022/03/25 08:06:59;;;;;;;3.50;1.63;;;;;;;;;;5034298;28;20025;-76
2022/03/25 08:09:26;;;;;;;3.60;2.07;;;;;;;;;;5034395;28;20105;-75
2022/03/25 08:11:53;;;;;;;4.50;2.20;;;;;;;;;;5033082;28;20025;-75
2022/03/25 08:14:19;;;;;;;4.13;2.00;;;;;;;;;;5065372;28;20044;-76
2022/03/25 08:16:46;;;;;;;4.27;1.93;;;;;;;;;;5069022;28;20028;-76
2022/03/25 08:19:13;;;;;;;3.47;2.00;;;;;;;;;;5068837;28;20024;-76
2022/03/25 08:21:40;;;;;;;4.60;1.50;;;;;;;;;;5069107;28;20047;-76
2022/03/25 08:29:37;;;;;;;3.30;1.80;;;;;;;;;;5053907;28;20043;-76
2022/03/25 08:32:04;;;;;;;3.43;1.40;;;;;;;;;;5053715;28;20116;-75
2022/03/25 08:34:31;;;;;;;2.43;1.33;;;;;;;;;;5070903;28;20040;-75
2022/03/25 08:36:58;;;;;;;3.93;2.23;;;;;;;;;;5068479;28;20044;-75
2022/03/25 08:39:24;;;;;;;3.37;2.13;;;;;;;;;;5067805;28;20078;-76
2022/03/25 08:41:51;;;;;;;6.63;1.90;;;;;;;;;;5068191;28;20036;-75
2022/03/25 08:44:18;;;;;;;3.03;1.63;;;;;;;;;;5051710;28;20083;-75
2022/03/25 08:46:45;;;;;;;3.70;2.10;;;;;;;;;;5053525;28;20028;-76
2022/03/25 08:49:12;;;;;;;4.60;2.00;;;;;;;;;;5057553;28;20141;-75
2022/03/25 08:51:38;;;;;;;5.13;2.60;;;;;;;;;;5073477;28;20032;-75
2022/03/25 08:54:08;;;;;;;3.80;2.40;;;;;;;;;;5073257;28;20476;-75
2022/03/25 08:56:34;;;;;;;4.27;2.00;;;;;;;;;;5069729;28;20016;-76
2022/03/25 08:59:01;;;;;;;3.50;2.23;;;;;;;;;;5048023;28;20028;-75
2022/03/25 09:01:28;;;;;;;2.63;1.80;;;;;;;;;;5047820;28;20043;-75
2022/03/25 09:03:55;;;;;;;3.43;1.83;;;;;;;;;;5048092;28;20013;-75
2022/03/25 09:06:21;;;;;;;3.13;1.80;;;;;;;;;;5048778;28;20385;-75
2022/03/25 09:08:48;;;;;;;3.57;2.03;;;;;;;;;;5071511;28;20033;-75
2022/03/25 09:11:15;;;;;;;3.63;1.90;;;;;;;;;;5072569;28;20082;-75
2022/03/25 09:13:41;;;;;;;4.00;2.00;;;;;;;;;;5053734;28;20067;-75
2022/03/25 09:16:09;;;;;;;4.57;2.23;;;;;;;;;;5052852;28;20462;-75
2022/03/25 09:18:35;;;;;;;4.20;2.13;;;;;;;;;;5051883;28;20067;-75
2022/03/25 09:21:02;;;;;;;3.43;1.97;;;;;;;;;;5047473;28;20096;-75
2022/03/25 09:23:29;;;;;;;4.00;2.30;;;;;;;;;;5063770;28;20277;-75
2022/03/25 09:25:57;;;;;;;3.40;1.70;;;;;;;;;;5065801;28;20045;-75
2022/03/25 09:28:24;;;;;;;3.73;2.20;;;;;;;;;;5067567;28;20101;-76
2022/03/25 09:30:51;;;;;;;3.30;2.03;;;;;;;;;;5072631;28;20020;-75
2022/03/25 09:33:18;;;;;;;3.80;2.10;;;;;;;;;;5057472;28;20048;-75
2022/03/25 09:35:45;;;;;;;4.13;2.33;;;;;;;;;;5069604;28;20017;-75
2022/03/25 09:38:12;;;;;;;3.83;2.00;;;;;;;;;;5072611;28;20340;-75
2022/03/25 09:40:41;;;;;;;4.37;2.43;;;;;;;;;;5071740;28;20276;-75
2022/03/25 09:43:07;;;;;;;6.70;2.40;;;;;;;;;;5066948;28;20870;-75
2022/03/25 09:45:35;;;;;;;3.63;2.03;;;;;;;;;;5052004;28;20025;-75
2022/03/25 09:48:02;;;;;;;3.80;2.30;;;;;;;;;;5047351;28;20273;-75
2022/03/25 09:50:29;;;;;;;3.73;2.03;;;;;;;;;;5046442;28;20613;-75
2022/03/25 09:52:56;;;;;;;3.80;1.73;;;;;;;;;;5052420;28;20254;-75
2022/03/25 09:55:23;;;;;;;3.23;1.80;;;;;;;;;;5064974;28;20281;-75
2022/03/25 09:57:50;;;;;;;5.07;1.87;;;;;;;;;;5072302;28;20344;-75
2022/03/25 10:00:18;;;;;;;3.37;1.63;;;;;;;;;;5071951;28;20246;-75
2022/03/25 10:02:45;;;;;;;4.13;1.57;;;;;;;;;;5072134;28;20723;-75
2022/03/25 10:05:19;;;;;;;2.03;1.23;;;;;;;;;;5055492;28;20621;-75
2022/03/25 10:07:49;;;;;;;2.60;1.03;;;;;;;;;;5066124;28;20265;-75
2022/03/25 10:10:19;;;;;;;6.47;0.70;;;;;;;;;;5066991;28;20605;-75
2022/03/25 10:12:47;;;;;;;2.80;1.37;;;;;;;;;;5066751;28;20713;-75
2022/03/25 10:15:16;;;;;;;2.47;1.40;;;;;;;;;;5072214;28;20269;-75
2022/03/25 10:17:46;;;;;;;3.17;1.40;;;;;;;;;;5053474;28;20266;-75
2022/03/25 10:20:13;;;;;;;4.43;1.60;;;;;;;;;;5052086;28;20250;-75
2022/03/25 10:22:40;;;;;;;2.87;1.70;;;;;;;;;;5051939;28;20285;-75
2022/03/25 10:25:09;;;;;;;3.07;1.57;;;;;;;;;;5050981;28;20262;-75
2022/03/25 10:27:36;;;;;;;2.90;1.60;;;;;;;;;;5063335;28;20273;-75
2022/03/25 10:30:05;;;;;;;2.70;1.50;;;;;;;;;;5066796;28;20258;-75
2022/03/25 10:32:39;;;;;;;2.13;1.30;;;;;;;;;;5066697;28;20257;-75
2022/03/25 10:35:08;;;;;;;4.13;1.30;;;;;;;;;;5066969;28;20805;-75
2022/03/25 10:37:36;;;;;;;2.33;1.37;;;;;;;;;;5054909;28;20262;-75
2022/03/25 10:40:05;;;;;;;2.53;1.40;;;;;;;;;;5051647;28;20257;-75
2022/03/25 10:42:33;;;;;;;4.13;1.50;;;;;;;;;;5051678;28;20286;-75
2022/03/25 10:45:00;;;;;;;3.10;1.50;;;;;;;;;;5051958;28;20250;-75
2022/03/25 10:47:28;;;;;;;4.70;1.20;;;;;;;;;;5066085;28;20273;-75
2022/03/25 10:49:55;;;;;;;3.27;1.50;;;;;;;;;;5066526;28;20740;-74
2022/03/25 10:52:23;;;;;;;4.03;1.27;;;;;;;;;;5066428;28;20803;-75
2022/03/25 10:54:50;;;;;;;3.43;1.07;;;;;;;;;;5066516;28;20257;-75
2022/03/25 10:57:17;;;;;;;3.50;1.10;;;;;;;;;;5052168;28;20281;-75
2022/03/25 10:59:57;;;;;;;1.53;0.93;;;;;;;;;;5051687;28;20329;-75
2022/03/25 11:02:24;;;;;;;2.03;1.00;;;;;;;;;;5053032;28;20274;-75
2022/03/25 11:04:51;;;;;;;2.00;1.07;;;;;;;;;;5055479;28;20273;-75
2022/03/25 11:07:22;;;;;;;2.17;0.97;;;;;;;;;;5068556;28;20356;-75
2022/03/25 11:09:50;;;;;;;1.77;0.93;;;;;;;;;;5074270;28;20319;-75
2022/03/25 11:12:17;;;;;;;2.43;0.90;;;;;;;;;;5070122;28;20262;-75
2022/03/25 11:14:44;;;;;;;2.40;1.00;;;;;;;;;;5069871;28;20265;-75
2022/03/25 11:17:11;;;;;;;1.60;0.87;;;;;;;;;;5057047;28;20277;-75
2022/03/25 11:19:38;;;;;;;1.50;0.90;;;;;;;;;;5050105;28;20258;-75
2022/03/25 11:22:05;;;;;;;2.63;1.00;;;;;;;;;;5056926;28;20837;-75
2022/03/25 11:24:38;;;;;;;1.43;0.87;;;;;;;;;;5074645;28;20277;-75
2022/03/25 11:27:30;;;;;;;2.00;0.90;;;;;;;;;;5075019;28;20286;-75
2022/03/25 11:30:13;;;;;;;1.57;0.83;;;;;;;;;;5071127;28;20280;-75
2022/03/25 11:32:50;;;;;;;2.40;1.10;;;;;;;;;;5066076;28;20352;-75
2022/03/25 11:35:19;;;;;;;2.87;1.17;;;;;;;;;;5049710;28;20345;-75
2022/03/25 11:37:46;;;;;;;2.47;1.20;;;;;;;;;;5049530;28;20316;-75
2022/03/25 11:40:22;;;;;;;3.10;1.37;;;;;;;;;;5049717;28;20341;-75
2022/03/25 11:42:50;;;;;;;3.70;1.00;;;;;;;;;;5051990;28;20305;-75
2022/03/25 11:45:41;;;;;;;2.30;1.10;;;;;;;;;;5063205;28;20744;-75
2022/03/25 11:48:08;;;;;;;2.30;1.30;;;;;;;;;;5074050;28;20258;-75
2022/03/25 11:50:36;;;;;;;2.57;1.03;;;;;;;;;;5074653;28;20261;-75
2022/03/25 11:53:11;;;;;;;2.37;1.40;;;;;;;;;;5070237;28;20327;-75
2022/03/25 11:55:59;;;;;;;2.90;1.50;;;;;;;;;;5050388;28;20265;-75
2022/03/25 11:58:26;;;;;;;2.17;1.20;;;;;;;;;;5049322;28;20254;-75
2022/03/25 12:00:59;;;;;;;3.80;1.93;;;;;;;;;;5048985;28;20361;-75
2022/03/25 12:03:53;;;;;;;2.67;1.17;;;;;;;;;;5056021;28;20348;-75
2022/03/25 12:06:21;;;;;;;2.87;1.17;;;;;;;;;;5071016;28;20356;-75
2022/03/25 12:08:57;;;;;;;2.27;1.47;;;;;;;;;;5074322;28;20265;-75
2022/03/25 12:11:43;;;;;;;3.07;1.27;;;;;;;;;;5074205;28;20337;-75
2022/03/25 12:14:10;;;;;;;2.67;1.40;;;;;;;;;;5073193;28;20260;-76
2022/03/25 12:16:51;;;;;;;3.37;1.40;;;;;;;;;;5057602;28;20266;-75
2022/03/25 12:19:26;;;;;;;4.80;2.10;;;;;;;;;;5048827;28;20745;-75
2022/03/25 12:21:56;;;;;;;3.10;1.40;;;;;;;;;;5048794;28;20288;-75
2022/03/25 12:24:24;;;;;;;3.47;1.50;;;;;;;;;;5048334;28;20672;-75
2022/03/25 12:27:04;;;;;;;2.80;1.50;;;;;;;;;;5050160;28;20622;-75
2022/03/25 12:29:31;;;;;;;2.77;1.50;;;;;;;;;;5074026;28;20612;-75
2022/03/25 12:32:02;;;;;;;8.33;3.17;;;;;;;;;;5073892;28;20292;-75
2022/03/25 12:34:41;;;;;;;3.90;1.60;;;;;;;;;;5073801;28;20253;-75
2022/03/25 12:37:12;;;;;;;5.40;1.47;;;;;;;;;;5057824;28;20613;-74
2022/03/25 12:39:39;;;;;;;4.00;1.50;;;;;;;;;;5050366;28;20269;-74
2022/03/25 12:42:13;;;;;;;4.07;1.77;;;;;;;;;;5048358;28;20294;-75
2022/03/25 12:44:39;;;;;;;4.73;1.77;;;;;;;;;;5048276;28;20606;-75
2022/03/25 12:47:06;;;;;;;3.20;1.60;;;;;;;;;;5062516;28;20775;-75
2022/03/25 12:49:33;;;;;;;2.93;1.37;;;;;;;;;;5070952;28;20314;-75
2022/03/25 12:52:01;;;;;;;2.67;1.50;;;;;;;;;;5073288;28;20736;-75
2022/03/25 12:54:28;;;;;;;3.37;1.50;;;;;;;;;;5073407;28;20755;-75
2022/03/25 12:56:56;;;;;;;2.47;1.77;;;;;;;;;;5073088;28;20246;-75
2022/03/25 12:59:34;;;;;;;3.87;1.87;;;;;;;;;;5053318;28;20262;-75
2022/03/25 13:02:10;;;;;;;7.07;1.90;;;;;;;;;;5049579;28;20286;-74
2022/03/25 13:04:37;;;;;;;4.70;1.83;;;;;;;;;;5068076;28;20289;-74
2022/03/25 13:07:18;;;;;;;3.10;1.93;;;;;;;;;;5067850;28;20266;-74
2022/03/25 13:09:54;;;;;;;11.67;2.10;;;;;;;;;;5067902;28;20257;-74
2022/03/25 13:12:37;;;;;;;6.87;2.77;;;;;;;;;;5069135;28;20293;-74
2022/03/25 13:15:04;;;;;;;4.70;2.77;;;;;;;;;;5052871;28;20741;-74
2022/03/25 13:17:36;;;;;;;6.73;2.70;;;;;;;;;;5057143;28;20273;-74
2022/03/25 13:20:06;;;;;;;4.70;2.80;;;;;;;;;;5072634;28;20257;-74
2022/03/25 13:22:32;;;;;;;4.93;2.70;;;;;;;;;;5072751;28;20282;-75
2022/03/25 13:24:59;;;;;;;6.47;3.40;;;;;;;;;;5066717;28;20736;-74
2022/03/25 13:27:27;;;;;;;7.57;3.27;;;;;;;;;;5064583;28;20269;-74
2022/03/25 13:29:54;;;;;;;6.40;3.07;;;;;;;;;;5047593;28;20375;-74
2022/03/25 13:32:37;;;;;;;7.60;3.83;;;;;;;;;;5047402;28;20270;-74
2022/03/25 13:35:11;;;;;;;11.27;4.33;;;;;;;;;;5052437;28;20760;-75
2022/03/25 13:37:38;;;;;;;10.90;4.68;;;;;;;;;;5052916;28;20258;-74
2022/03/25 13:40:25;;;;;;;12.27;5.53;;;;;;;;;;5060594;28;20032;-74
2022/03/25 13:42:55;;;;;;;11.13;6.03;;;;;;;;;;5071661;28;20575;-74
2022/03/25 13:45:22;;;;;;;13.43;6.43;;;;;;;;;;5071575;28;20387;-74
2022/03/25 13:48:02;;;;;;;10.23;5.60;;;;;;;;;;5067025;28;20067;-74
2022/03/25 13:50:29;;;;;;;9.50;5.10;;;;;;;;;;5067075;28;20021;-74
2022/03/25 13:52:58;;;;;;;6.13;3.40;;;;;;;;;;5063811;28;20075;-75
2022/03/25 13:55:36;;;;;;;5.67;2.60;;;;;;;;;;5068163;28;20111;-74
2022/03/25 13:58:03;;;;;;;7.37;3.73;;;;;;;;;;5072359;28;20020;-75
2022/03/25 14:00:38;;;;;;;8.40;4.33;;;;;;;;;;5072202;28;20100;-75
2022/03/25 14:03:05;;;;;;;11.65;2.50;;;;;;;;;;5069416;28;20024;-75
2022/03/25 14:05:32;;;;;;;7.33;3.27;;;;;;;;;;5059109;28;20021;-75
2022/03/25 14:07:59;;;;;;;5.97;2.90;;;;;;;;;;5069867;28;20016;-75
2022/03/25 14:10:26;;;;;;;4.90;2.07;;;;;;;;;;5066757;28;20021;-75
2022/03/25 14:12:56;;;;;;;4.23;2.13;;;;;;;;;;5066843;28;20056;-75
2022/03/25 14:15:26;;;;;;;4.90;2.30;;;;;;;;;;5061014;28;20499;-75
2022/03/25 14:17:53;;;;;;;6.03;3.23;;;;;;;;;;5048364;28;20025;-75
2022/03/25 14:20:23;;;;;;;7.20;2.90;;;;;;;;;;5051921;28;20036;-75
2022/03/25 14:22:51;;;;;;;5.00;2.27;;;;;;;;;;5051742;28;20045;-75
2022/03/25 14:25:18;;;;;;;7.70;2.43;;;;;;;;;;5051915;28;20557;-75
2022/03/25 14:27:49;;;;;;;7.23;2.97;;;;;;;;;;5059301;28;20032;-75
2022/03/25 14:30:16;;;;;;;6.07;3.07;;;;;;;;;;5069747;28;20027;-75
2022/03/25 14:32:43;;;;;;;7.10;3.03;;;;;;;;;;5066163;28;20425;-75
2022/03/25 14:35:10;;;;;;;6.80;2.60;;;;;;;;;;5066340;28;20031;-75
2022/03/25 14:37:36;;;;;;;7.53;2.50;;;;;;;;;;5070264;28;20029;-75
2022/03/25 14:40:03;;;;;;;4.83;2.17;;;;;;;;;;5060043;28;20032;-75
2022/03/25 14:42:30;;;;;;;3.90;2.20;;;;;;;;;;5055733;28;20039;-75
2022/03/25 14:44:57;;;;;;;5.53;2.33;;;;;;;;;;5055771;28;20036;-75
2022/03/25 14:47:24;;;;;;;9.13;3.27;;;;;;;;;;5055580;28;20345;-75
2022/03/25 14:49:52;;;;;;;3.73;2.30;;;;;;;;;;5055575;28;20115;-75
2022/03/25 14:52:18;;;;;;;7.07;2.57;;;;;;;;;;5054789;28;20032;-75
2022/03/25 14:54:45;;;;;;;5.47;2.10;;;;;;;;;;5050307;28;20033;-76